Terminal Aerodrome Forecast
Issued by NWS Louisville, KY

Home | Current Version | Previous Version | Text Only | Print | Product List | Glossary On
Versions: 1 2 3 4 5 6 7 8 9 10 11 12
000
FTUS43 KLMK 161700
TAFLEX
TAF
KLEX 161720Z 1618/1718 19008KT P6SM SCT020 BKN100
     FM170500 21006KT 4SM BR BKN010
     FM171400 26004KT P6SM BKN021=

USA.gov is the U.S. government's official web portal to all federal, state and local government web resources and services.